Terminal Aerodrome Forecast
Issued by NWS Melbourne, FL

Home | Current Version | Previous Version | Text Only | Print | Product List | Glossary On
Versions: 1 2 3 4 5 6 7 8 9 10 11 12 13 14 15 16 17
000
FTUS42 KMLB 192146 AAA
TAFVRB
TAF AMD
KVRB 192146Z 1922/2018 12012KT P6SM SCT060 BKN250
     FM192300 18008KT P6SM VCTS SCT050CB SCT080 BKN250
      TEMPO 1923/2002 5SM TSRA BR SCT020CB BKN040 OVC060
     FM200300 20005KT P6SM SCT040 BKN250=

USA.gov is the U.S. government's official web portal to all federal, state and local government web resources and services.